Accueil
METAR-TAF:

METAR-TAF

Aéroports :

Moroni, Comores

Aéroport international Prince Saïd Ibrahim

latitude: 11-32S, longitude: 043-16E, altitude: 29 m

Observation

Le bulletin a été fait il y a 1 heure et 5 minutes, à 04:00 UTC
Vent 3 kt de est, variant entre nord-est et sud-est
Température 21°C
Humidité 94%
Pression 1018 hPa
Visibilité 10 km ou plus
Quelques nuages à une hauteur de 1800 ft

METAR: FMCH 260400Z 09003KT 040V130 9999 FEW018 21/20 Q1018 NOSIG

Heure: 08:05 (05:05 UTC)


TAF: absent

Observations et prévisions météorologiques de plus de 4000 aéroports (messages METAR et TAF).

Les stations disponibles sont représentées par des disques jaunes et rouges sur la carte.

Passer la souris dessus pour voir le nom de la station.

Cliquer dessus pour voir les observations et prévisions météorologiques.

Pour changer de carte: cliquez sur les boutons verts avec une croix noire pour zoomer, sur le bouton vert avec un tiret pour effectuer un zoom arrière, ou sur les flèches vertes pour les cartes adjacentes.


METAR-TAF: